This is the latest recevied weather packets stored in our database for station/object KJ5IIV. If no packets are shown the sender has not sent any weather packets the latest 10 day(s).
| Time | Temp. | Humidity | Pressure | Rain* | Wind** | Luminosity | Snow |
|---|---|---|---|---|---|---|---|
| 1778095064 | 16.11° C | 87% | 1011.8 hPa | 0 mm | - | 263 W/m² | - |
| 1778094760 | 16.11° C | 88% | 1011.5 hPa | 0 mm | - | 359 W/m² | - |
| 1778094458 | 15.56° C | 88% | 1011.7 hPa | 0 mm | - | 225 W/m² | - |
| 1778094154 | 15.56° C | 89% | 1011.9 hPa | 0 mm | - | 244 W/m² | - |
| 1778093851 | 15° C | 89% | 1012 hPa | 0 mm | - | 226 W/m² | - |
| 1778093548 | 15° C | 89% | 1011.8 hPa | 0 mm | - | 230 W/m² | - |
| 1778093245 | 15° C | 89% | 1012.1 hPa | 0 mm | - | 213 W/m² | - |
| 1778092942 | 15° C | 90% | 1011.8 hPa | 0 mm | - | 220 W/m² | - |
| 1778092639 | 15° C | 89% | 1011.9 hPa | 0 mm | - | 228 W/m² | - |
| 1778092335 | 15° C | 90% | 1012.2 hPa | 0 mm | - | 245 W/m² | - |
| 1778092032 | 14.44° C | 89% | 1012.1 hPa | 0 mm | - | 114 W/m² | - |
| 1778091729 | 15° C | 89% | 1012.7 hPa | 0 mm | - | 107 W/m² | - |
| 1778091427 | 15° C | 88% | 1012.3 hPa | 0 mm | - | 179 W/m² | - |
| 1778091124 | 15° C | 88% | 1013.5 hPa | 0 mm | - | 98 W/m² | - |
| 1778090821 | 15° C | 88% | 1013.8 hPa | 0 mm | - | 106 W/m² | - |
| 1778090517 | 15° C | 88% | 1012.9 hPa | 0 mm | - | 169 W/m² | - |
| 1778090214 | 15° C | 88% | 1013.1 hPa | 0 mm | - | 132 W/m² | - |
| 1778089910 | 15° C | 88% | 1013.8 hPa | 0 mm | - | 136 W/m² | - |
| 1778089603 | 14.44° C | 88% | 1013.9 hPa | 0 mm | - | 106 W/m² | - |
| 1778089300 | 14.44° C | 88% | 1014 hPa | 0 mm | - | 84 W/m² | - |
| 1778088997 | 14.44° C | 87% | 1013.7 hPa | 0 mm | - | 75 W/m² | - |
| 1778088694 | 14.44° C | 88% | 1011.6 hPa | 0 mm | - | 345 W/m² | - |
| 1778088391 | 14.44° C | 88% | 1013.3 hPa | 0 mm | - | 174 W/m² | - |
| 1778088087 | 14.44° C | 88% | 1013.6 hPa | 0 mm | - | 195 W/m² | - |
| 1778087785 | 14.44° C | 89% | 1013.6 hPa | 0 mm | - | 100 W/m² | - |
* Rain latest hour (hover to see other rain measurements)
** Current wind speed in m/s (hover to see current wind gust speed)